TimeCST,TemperatureF,Dew PointF,Humidity,Sea Level PressureIn,VisibilityMPH,Wind Direction,Wind SpeedMPH,Gust SpeedMPH,PrecipitationIn,Events,Conditions,WindDirDegrees,DateUTC
12:15 AM,14.0,10.4,86,30.30,10.0,Calm,Calm,-,N/A,,Clear,0,2013-03-07 06:15:00
12:35 AM,14.0,10.4,86,30.30,10.0,Calm,Calm,-,N/A,,Clear,0,2013-03-07 06:35:00
12:55 AM,12.2,8.6,85,30.32,10.0,Calm,Calm,-,N/A,,Clear,0,2013-03-07 06:55:00
1:15 AM,10.4,8.6,92,30.32,10.0,Calm,Calm,-,N/A,,Clear,0,2013-03-07 07:15:00
1:35 AM,10.4,6.8,85,30.32,10.0,Calm,Calm,-,N/A,,Clear,0,2013-03-07 07:35:00
1:55 AM,8.6,5.0,85,30.33,10.0,Calm,Calm,-,N/A,,Clear,0,2013-03-07 07:55:00
2:15 AM,8.6,5.0,85,30.32,10.0,Calm,Calm,-,N/A,,Clear,0,2013-03-07 08:15:00
2:35 AM,6.8,3.2,85,30.32,10.0,Calm,Calm,-,N/A,,Clear,0,2013-03-07 08:35:00
2:55 AM,5.0,3.2,92,30.32,10.0,Calm,Calm,-,N/A,,Clear,0,2013-03-07 08:55:00
3:15 AM,3.2,-0.4,85,30.32,10.0,Calm,Calm,-,N/A,,Clear,0,2013-03-07 09:15:00
3:35 AM,3.2,1.4,92,30.32,10.0,Calm,Calm,-,N/A,,Clear,0,2013-03-07 09:35:00
3:55 AM,3.2,-0.4,85,30.32,10.0,Calm,Calm,-,N/A,,Clear,0,2013-03-07 09:55:00
4:15 AM,1.4,-2.2,85,30.32,10.0,Calm,Calm,-,N/A,,Clear,0,2013-03-07 10:15:00
4:35 AM,3.2,-0.4,85,30.34,10.0,Calm,Calm,-,N/A,,Clear,0,2013-03-07 10:35:00
4:55 AM,3.2,-0.4,85,30.34,10.0,Calm,Calm,-,N/A,,Clear,0,2013-03-07 10:55:00
5:15 AM,1.4,-4.0,78,30.34,10.0,Calm,Calm,-,N/A,,Clear,0,2013-03-07 11:15:00
5:35 AM,-0.4,-5.8,78,30.34,10.0,Calm,Calm,-,N/A,,Clear,0,2013-03-07 11:35:00
5:55 AM,1.4,-2.2,85,30.35,10.0,Calm,Calm,-,N/A,,Clear,0,2013-03-07 11:55:00
6:15 AM,-2.2,-5.8,85,30.35,10.0,Calm,Calm,-,N/A,,Clear,0,2013-03-07 12:15:00
6:35 AM,-0.4,-4.0,85,30.36,10.0,Calm,Calm,-,N/A,,Clear,0,2013-03-07 12:35:00
6:55 AM,-0.4,-4.0,85,30.36,10.0,Calm,Calm,-,N/A,,Clear,0,2013-03-07 12:55:00
7:15 AM,1.4,-4.0,78,30.37,10.0,Calm,Calm,-,N/A,,Clear,0,2013-03-07 13:15:00
7:35 AM,3.2,-0.4,85,30.37,10.0,Calm,Calm,-,N/A,,Clear,0,2013-03-07 13:35:00
7:55 AM,6.8,1.4,79,30.37,10.0,Calm,Calm,-,N/A,,Clear,0,2013-03-07 13:55:00
8:15 AM,10.4,5.0,79,30.37,10.0,Calm,Calm,-,N/A,,Clear,0,2013-03-07 14:15:00
8:35 AM,10.4,5.0,79,30.37,10.0,Calm,Calm,-,N/A,,Clear,0,2013-03-07 14:35:00
8:55 AM,14.0,8.6,79,30.36,10.0,Calm,Calm,-,N/A,,Clear,0,2013-03-07 14:55:00
9:15 AM,17.6,8.6,68,30.37,10.0,Calm,Calm,-,N/A,,Clear,0,2013-03-07 15:15:00
9:35 AM,21.2,12.2,68,30.37,10.0,Calm,Calm,-,N/A,,Clear,0,2013-03-07 15:35:00
9:55 AM,24.8,12.2,59,30.37,10.0,Calm,Calm,-,N/A,,Clear,0,2013-03-07 15:55:00
10:15 AM,24.8,12.2,59,30.37,10.0,Calm,Calm,-,N/A,,Clear,0,2013-03-07 16:15:00
10:35 AM,26.6,12.2,55,30.37,10.0,Calm,Calm,-,N/A,,Clear,0,2013-03-07 16:35:00
10:55 AM,26.6,12.2,55,30.37,10.0,Calm,Calm,-,N/A,,Clear,0,2013-03-07 16:55:00
11:15 AM,26.6,12.2,55,30.37,10.0,Calm,Calm,-,N/A,,Clear,0,2013-03-07 17:15:00
11:35 AM,26.6,12.2,55,30.37,10.0,Calm,Calm,-,N/A,,Clear,0,2013-03-07 17:35:00
11:55 AM,28.4,14.0,55,30.37,10.0,Calm,Calm,-,N/A,,Clear,0,2013-03-07 17:55:00
12:15 PM,28.4,14.0,55,30.37,10.0,Calm,Calm,-,N/A,,Clear,0,2013-03-07 18:15:00
12:35 PM,28.4,14.0,55,30.36,10.0,SW,3.5,-,N/A,,Clear,220,2013-03-07 18:35:00
12:55 PM,28.4,14.0,55,30.37,10.0,SSW,3.5,-,N/A,,Clear,200,2013-03-07 18:55:00
1:15 PM,30.2,14.0,51,30.35,10.0,Calm,Calm,-,N/A,,Clear,0,2013-03-07 19:15:00
1:35 PM,30.2,14.0,51,30.34,10.0,Calm,Calm,-,N/A,,Clear,0,2013-03-07 19:35:00
1:55 PM,30.2,14.0,51,30.34,10.0,Calm,Calm,-,N/A,,Clear,0,2013-03-07 19:55:00
2:15 PM,30.2,14.0,51,30.34,10.0,Calm,Calm,-,N/A,,Clear,0,2013-03-07 20:15:00
2:35 PM,32.0,14.0,48,30.34,10.0,Calm,Calm,-,N/A,,Clear,0,2013-03-07 20:35:00
2:55 PM,32.0,14.0,48,30.34,10.0,SW,4.6,-,N/A,,Clear,220,2013-03-07 20:55:00
3:15 PM,32.0,15.8,51,30.34,10.0,Calm,Calm,-,N/A,,Clear,0,2013-03-07 21:15:00
3:35 PM,32.0,14.0,48,30.34,10.0,Calm,Calm,-,N/A,,Clear,0,2013-03-07 21:35:00
3:55 PM,32.0,14.0,48,30.34,10.0,Calm,Calm,-,N/A,,Clear,0,2013-03-07 21:55:00
4:15 PM,32.0,15.8,51,30.33,10.0,SSE,3.5,-,N/A,,Clear,150,2013-03-07 22:15:00
4:35 PM,32.0,14.0,48,30.34,10.0,Calm,Calm,-,N/A,,Clear,0,2013-03-07 22:35:00
4:55 PM,32.0,14.0,48,30.34,10.0,Calm,Calm,-,N/A,,Clear,0,2013-03-07 22:55:00
5:15 PM,32.0,14.0,48,30.34,10.0,Calm,Calm,-,N/A,,Clear,0,2013-03-07 23:15:00
5:35 PM,32.0,14.0,48,30.34,10.0,Calm,Calm,-,N/A,,Clear,0,2013-03-07 23:35:00
5:55 PM,28.4,14.0,55,30.35,10.0,Calm,Calm,-,N/A,,Clear,0,2013-03-07 23:55:00
7:35 PM,21.2,14.0,74,30.36,10.0,Calm,Calm,-,N/A,,Clear,0,2013-03-08 01:35:00
7:55 PM,23.0,14.0,68,30.36,10.0,Calm,Calm,-,N/A,,Clear,0,2013-03-08 01:55:00
8:15 PM,23.0,14.0,68,30.36,10.0,Calm,Calm,-,N/A,,Clear,0,2013-03-08 02:15:00
8:35 PM,19.4,12.2,74,30.35,10.0,Calm,Calm,-,N/A,,Clear,0,2013-03-08 02:35:00
8:55 PM,17.6,12.2,79,30.35,10.0,Calm,Calm,-,N/A,,Clear,0,2013-03-08 02:55:00
9:15 PM,17.6,10.4,73,30.36,10.0,Calm,Calm,-,N/A,,Clear,0,2013-03-08 03:15:00
9:35 PM,17.6,12.2,79,30.36,10.0,Calm,Calm,-,N/A,,Clear,0,2013-03-08 03:35:00
9:55 PM,17.6,12.2,79,30.37,10.0,SE,4.6,-,N/A,,Clear,130,2013-03-08 03:55:00
10:15 PM,19.4,12.2,74,30.37,10.0,SE,4.6,-,N/A,,Clear,140,2013-03-08 04:15:00
10:35 PM,21.2,12.2,68,30.37,10.0,SSE,5.8,-,N/A,,Clear,150,2013-03-08 04:35:00
10:55 PM,21.2,12.2,68,30.37,10.0,SSE,3.5,-,N/A,,Clear,150,2013-03-08 04:55:00
11:15 PM,21.2,12.2,68,30.38,10.0,SSE,3.5,-,N/A,,Clear,150,2013-03-08 05:15:00
11:35 PM,19.4,12.2,74,30.38,10.0,SSE,3.5,-,N/A,,Clear,150,2013-03-08 05:35:00
11:55 PM,19.4,12.2,74,30.38,10.0,SE,3.5,-,N/A,,Clear,130,2013-03-08 05:55:00